Time;durP1;ratioP1;P1;durP2;ratioP2;P2;SDS_P1;SDS_P2;PMS_P1;PMS_P2;Temp;Humidity;BMP_temperature;BMP_pressure;BME280_temperature;BME280_humidity;BME280_pressure;Samples;Min_cycle;Max_cycle;Signal;HPM_P1;HPM_P2
2023/04/11 00:01:01;;;;;;;87.00;44.53;;;;;;;21.68;67.90;98709.75;4945667;29;20641;-64
2023/04/11 00:03:31;;;;;;;88.68;47.10;;;;;;;21.69;67.69;98715.91;4945419;29;20075;-63
2023/04/11 00:06:01;;;;;;;96.03;45.92;;;;;;;21.70;67.59;98709.47;4943978;29;20416;-63
2023/04/11 00:08:31;;;;;;;89.97;46.17;;;;;;;21.68;68.23;98709.75;4945327;29;20047;-63
2023/04/11 00:11:00;;;;;;;87.32;44.97;;;;;;;21.67;68.41;98718.91;4945957;29;20046;-63
2023/04/11 00:13:29;;;;;;;75.22;43.35;;;;;;;21.68;68.71;98711.63;4946516;29;20106;-63
2023/04/11 00:16:00;;;;;;;84.63;44.38;;;;;;;21.71;68.56;98719.19;4945780;29;20560;-63
2023/04/11 00:18:30;;;;;;;75.90;42.50;;;;;;;21.71;68.80;98716.47;4931656;29;20055;-63
2023/04/11 00:21:00;;;;;;;78.13;43.53;;;;;;;21.70;69.24;98723.75;4946991;28;20051;-66
2023/04/11 00:23:29;;;;;;;82.82;44.00;;;;;;;21.68;69.36;98728.63;4943695;29;20067;-64
2023/04/11 00:25:58;;;;;;;107.45;53.65;;;;;;;21.59;68.54;98724.00;4942547;29;20162;-64
2023/04/11 00:28:27;;;;;;;117.07;54.47;;;;;;;21.61;68.70;98727.22;4946131;28;20114;-63
2023/04/11 00:30:56;;;;;;;115.20;58.15;;;;;;;21.62;68.57;98728.84;4929702;29;20059;-62
2023/04/11 00:33:26;;;;;;;119.43;58.95;;;;;;;21.60;68.74;98731.78;4945733;28;20059;-63
2023/04/11 00:35:56;;;;;;;119.10;61.85;;;;;;;21.60;68.49;98737.19;4946236;29;20075;-63
2023/04/11 00:38:26;;;;;;;117.43;60.72;;;;;;;21.59;68.82;98740.16;4929698;29;20502;-64
2023/04/11 00:40:55;;;;;;;124.70;62.50;;;;;;;21.60;68.94;98747.19;4947074;29;20380;-63
2023/04/11 00:43:24;;;;;;;138.45;66.32;;;;;;;21.54;68.63;98745.53;4943651;29;20548;-63
2023/04/11 00:45:54;;;;;;;133.93;67.47;;;;;;;21.55;68.82;98742.56;4930386;29;20878;-64
2023/04/11 00:48:27;;;;;;;131.07;67.00;;;;;;;21.54;69.20;98742.81;4930110;29;20063;-63
2023/04/11 00:50:57;;;;;;;149.03;72.23;;;;;;;21.51;68.92;98744.97;4944113;29;20043;-63
2023/04/11 00:53:31;;;;;;;134.93;69.93;;;;;;;21.52;69.01;98741.19;4944580;29;20127;-65
2023/04/11 00:56:00;;;;;;;148.40;73.97;;;;;;;21.51;69.03;98744.16;4929734;29;20393;-63
2023/04/11 00:58:32;;;;;;;150.75;76.57;;;;;;;21.49;69.17;98733.66;4916695;29;20054;-63
2023/04/11 01:01:07;;;;;;;151.10;78.78;;;;;;;21.49;69.19;98749.00;4942027;29;20118;-58
2023/04/11 01:03:38;;;;;;;148.63;77.72;;;;;;;21.54;68.68;98748.22;4926541;29;20055;-63
2023/04/11 01:06:12;;;;;;;147.85;80.70;;;;;;;21.52;68.92;98746.59;4946116;29;20046;-63
2023/04/11 01:08:43;;;;;;;162.48;84.05;;;;;;;21.59;68.57;98743.66;4943826;29;20079;-64
2023/04/11 01:11:16;;;;;;;162.38;82.25;;;;;;;21.64;68.50;98748.28;4927871;29;20054;-64
2023/04/11 01:13:47;;;;;;;160.40;83.90;;;;;;;21.61;68.66;98754.16;4941940;29;20047;-64
2023/04/11 01:16:20;;;;;;;157.98;82.60;;;;;;;21.64;67.92;98751.75;4945411;28;20104;-63
2023/04/11 01:18:50;;;;;;;154.35;81.50;;;;;;;21.65;68.34;98749.88;4945306;29;20105;-63
2023/04/11 01:21:21;;;;;;;153.70;84.60;;;;;;;21.71;67.69;98749.66;4943587;29;20055;-64
2023/04/11 01:23:55;;;;;;;162.18;83.97;;;;;;;21.81;68.23;98755.09;4944602;29;20130;-63
2023/04/11 01:26:24;;;;;;;151.82;81.30;;;;;;;21.92;68.68;98755.91;4938870;28;20820;-64
2023/04/11 01:28:54;;;;;;;149.32;81.57;;;;;;;21.94;68.60;98754.63;4945822;29;20058;-65
2023/04/11 01:31:23;;;;;;;151.43;79.70;;;;;;;21.98;68.23;98754.09;4927818;29;20051;-63
2023/04/11 01:33:53;;;;;;;164.40;82.72;;;;;;;21.99;68.25;98753.03;4942874;29;20051;-64
2023/04/11 01:36:23;;;;;;;156.27;83.40;;;;;;;22.00;67.78;98751.91;4921294;29;20469;-65
2023/04/11 01:38:53;;;;;;;154.90;85.50;;;;;;;22.09;68.01;98761.13;4943908;29;20047;-64
2023/04/11 01:41:26;;;;;;;158.95;88.20;;;;;;;22.11;67.37;98765.19;4933445;29;20058;-63
2023/04/11 01:43:56;;;;;;;;;;;;;;;22.18;66.86;98771.13;4916774;29;20057;-67
2023/04/11 01:46:25;;;;;;;167.10;87.78;;;;;;;22.27;67.22;98771.44;4916368;29;19934;-64
2023/04/11 01:48:57;;;;;;;167.07;86.88;;;;;;;22.35;67.17;98779.00;4921958;29;20134;-64
2023/04/11 01:51:27;;;;;;;161.32;88.72;;;;;;;22.45;67.25;98780.91;4943929;28;20838;-65
2023/04/11 01:53:56;;;;;;;161.73;86.95;;;;;;;22.50;66.63;98789.84;4945363;29;20308;-66
2023/04/11 01:56:26;;;;;;;177.70;89.05;;;;;;;22.55;66.13;98794.44;4944704;29;20039;-65
2023/04/11 01:58:57;;;;;;;163.85;90.53;;;;;;;22.67;66.05;98794.97;4943333;29;20058;-66
2023/04/11 02:01:27;;;;;;;158.25;89.15;;;;;;;22.76;65.24;98794.22;4926827;29;20079;-66
2023/04/11 02:03:57;;;;;;;168.50;91.38;;;;;;;22.86;65.14;98798.00;4946010;28;20043;-68
2023/04/11 02:06:27;;;;;;;168.15;94.90;;;;;;;22.98;64.71;98806.63;4944065;28;20043;-65
2023/04/11 02:08:57;;;;;;;166.00;95.18;;;;;;;23.15;64.86;98802.59;4918267;29;20052;-67
2023/04/11 02:11:26;;;;;;;159.88;95.82;;;;;;;23.28;63.55;98802.03;4903431;29;21035;-64
2023/04/11 02:13:56;;;;;;;172.57;98.07;;;;;;;23.61;62.58;98803.34;4926694;29;20058;-64
2023/04/11 02:16:28;;;;;;;167.90;96.18;;;;;;;24.10;62.97;98802.66;4925450;29;20493;-62
2023/04/11 02:18:58;;;;;;;;;;;;;;;24.67;60.63;98798.56;4927159;29;20130;-61
2023/04/11 02:21:28;;;;;;;160.95;88.18;;;;;;;25.24;57.98;98795.13;4925763;29;19933;-62
2023/04/11 02:23:57;;;;;;;149.75;87.55;;;;;;;25.67;56.74;98799.59;4909634;29;20089;-64
2023/04/11 02:26:27;;;;;;;147.95;87.63;;;;;;;25.80;55.40;98798.13;4908759;29;20180;-64
2023/04/11 02:28:57;;;;;;;136.50;81.28;;;;;;;25.93;54.17;98806.34;4925992;29;20467;-62
2023/04/11 02:31:26;;;;;;;132.88;82.10;;;;;;;25.98;54.25;98807.41;4926608;29;20062;-63
2023/04/11 02:33:56;;;;;;;146.38;83.57;;;;;;;25.90;55.13;98808.84;4906560;29;20063;-62
2023/04/11 02:36:27;;;;;;;136.50;81.18;;;;;;;25.89;55.24;98813.44;4906352;29;20051;-62
2023/04/11 02:38:56;;;;;;;128.52;80.70;;;;;;;26.00;55.09;98811.44;4925838;29;20047;-63
2023/04/11 02:41:27;;;;;;;135.40;75.80;;;;;;;26.21;55.40;98817.44;4925051;29;20138;-62
2023/04/11 02:43:57;;;;;;;127.55;77.70;;;;;;;26.39;55.27;98819.38;4922571;29;20048;-63
2023/04/11 02:46:26;;;;;;;120.88;71.00;;;;;;;26.31;52.74;98829.00;4926065;29;20051;-63
2023/04/11 02:48:55;;;;;;;113.53;63.20;;;;;;;26.22;51.51;98829.94;4903521;29;20579;-62
2023/04/11 02:51:26;;;;;;;112.40;62.63;;;;;;;26.15;52.44;98837.59;4917812;29;20079;-62
2023/04/11 02:53:55;;;;;;;112.18;62.28;;;;;;;26.08;52.32;98842.56;4926135;29;20062;-62
2023/04/11 02:56:25;;;;;;;107.82;62.90;;;;;;;26.00;52.58;98840.50;4926026;29;20093;-62
2023/04/11 02:58:56;;;;;;;105.05;63.55;;;;;;;25.96;53.89;98842.16;4911652;29;20071;-62
2023/04/11 03:01:28;;;;;;;113.90;64.80;;;;;;;25.94;54.39;98848.69;4920817;29;20074;-62
2023/04/11 03:03:57;;;;;;;116.47;66.03;;;;;;;25.97;55.38;98849.22;4909806;29;20055;-64
2023/04/11 03:06:37;;;;;;;112.05;65.20;;;;;;;25.99;54.81;98849.72;4930486;29;20047;-62
2023/04/11 03:09:06;;;;;;;115.72;67.75;;;;;;;26.05;55.67;98854.81;4906421;29;20069;-63
2023/04/11 03:11:37;;;;;;;121.45;65.13;;;;;;;26.12;55.88;98857.16;4912329;29;20436;-62
2023/04/11 03:14:07;;;;;;;137.43;71.65;;;;;;;26.12;53.15;98859.88;4944923;28;20468;-65
2023/04/11 03:16:36;;;;;;;124.25;70.82;;;;;;;26.19;54.73;98863.88;4929521;29;20511;-62
2023/04/11 03:19:05;;;;;;;133.50;71.97;;;;;;;26.27;54.75;98860.53;4947487;28;20498;-63
2023/04/11 03:21:35;;;;;;;123.63;70.43;;;;;;;26.34;53.78;98861.00;4930515;29;20436;-65
2023/04/11 03:24:05;;;;;;;119.97;67.68;;;;;;;26.44;54.53;98860.06;4943374;29;20059;-64
2023/04/11 03:26:34;;;;;;;115.70;62.72;;;;;;;26.54;56.09;98867.25;4947644;28;20098;-64
2023/04/11 03:29:09;;;;;;;103.82;58.10;;;;;;;26.60;54.76;98866.88;4929860;28;20044;-62
2023/04/11 03:31:51;;;;;;;102.47;55.88;;;;;;;26.68;53.97;98873.59;4927832;29;20035;-63
2023/04/11 03:34:22;;;;;;;97.25;52.05;;;;;;;26.74;53.56;98873.22;4942990;29;20047;-62
2023/04/11 03:36:52;;;;;;;99.47;50.47;;;;;;;26.78;52.60;98876.16;4950420;28;20941;-61
2023/04/11 03:39:23;;;;;;;91.22;49.40;;;;;;;26.78;51.58;98885.13;4936736;29;20075;-63
2023/04/11 03:41:57;;;;;;;88.13;46.58;;;;;;;26.83;50.21;98895.09;4930933;29;20051;-63
2023/04/11 03:44:27;;;;;;;98.22;45.88;;;;;;;26.89;46.53;98890.44;4928926;29;20051;-62
2023/04/11 03:46:57;;;;;;;93.20;43.55;;;;;;;26.97;48.67;98892.50;4946617;29;20047;-63
2023/04/11 03:49:34;;;;;;;88.80;45.45;;;;;;;26.98;49.93;98891.41;4940256;29;20043;-63
2023/04/11 03:52:06;;;;;;;78.95;42.70;;;;;;;27.03;49.45;98897.56;4934686;29;20534;-61
2023/04/11 03:54:36;;;;;;;76.75;44.92;;;;;;;27.08;50.29;98904.84;4951130;29;20050;-63
2023/04/11 03:57:09;;;;;;;86.83;42.60;;;;;;;27.17;49.34;98905.81;4929670;29;20159;-62
2023/04/11 03:59:39;;;;;;;75.43;41.03;;;;;;;27.22;48.10;98908.41;4945718;29;20473;-62
2023/04/11 04:02:14;;;;;;;73.88;40.83;;;;;;;27.25;48.51;98916.00;4935464;28;20056;-62
2023/04/11 04:04:53;;;;;;;74.53;40.33;;;;;;;27.32;48.62;98915.63;4929252;29;20058;-62
2023/04/11 04:07:28;;;;;;;74.65;39.97;;;;;;;27.45;47.64;98910.22;4931518;29;20547;-63
2023/04/11 04:10:08;;;;;;;67.40;38.08;;;;;;;27.43;47.28;98920.59;4926907;29;20081;-62
2023/04/11 04:12:39;;;;;;;59.33;33.67;;;;;;;27.51;47.76;98913.69;4924065;29;20146;-63
2023/04/11 04:15:14;;;;;;;45.90;24.23;;;;;;;27.61;46.29;98919.78;4910187;28;20481;-67
2023/04/11 04:17:47;;;;;;;38.60;19.42;;;;;;;27.68;46.34;98912.03;4929088;29;20056;-63
2023/04/11 04:20:28;;;;;;;42.35;20.08;;;;;;;27.74;45.89;98920.13;4944019;29;20047;-66
2023/04/11 04:22:59;;;;;;;44.80;21.20;;;;;;;27.85;45.55;98925.06;4929041;29;20673;-63
2023/04/11 04:25:41;;;;;;;34.92;21.67;;;;;;;27.95;44.08;98924.91;4928181;29;20082;-63
2023/04/11 04:28:11;;;;;;;45.63;25.50;;;;;;;27.99;45.41;98923.19;4925941;29;20047;-63
2023/04/11 04:30:40;;;;;;;46.55;28.38;;;;;;;28.15;44.92;98926.44;4942510;29;20051;-63
2023/04/11 04:33:13;;;;;;;60.47;28.50;;;;;;;28.33;45.50;98936.44;4923448;29;20059;-63
2023/04/11 04:35:46;;;;;;;49.60;28.50;;;;;;;28.48;44.71;98935.34;4941992;29;20052;-63
2023/04/11 04:38:16;;;;;;;62.83;30.33;;;;;;;28.77;42.61;98952.19;4945047;29;20078;-63
2023/04/11 04:40:53;;;;;;;51.42;29.85;;;;;;;28.93;44.02;98949.97;4942180;29;20054;-64
2023/04/11 04:43:26;;;;;;;57.03;30.73;;;;;;;29.06;44.19;98953.75;4942373;29;20061;-64
2023/04/11 04:46:18;;;;;;;61.03;34.65;;;;;;;29.33;39.26;98948.25;4942063;29;20409;-65
2023/04/11 04:48:53;;;;;;;66.05;39.53;;;;;;;29.64;42.37;98951.84;4939612;29;20048;-62
2023/04/11 04:51:26;;;;;;;71.65;36.40;;;;;;;29.85;40.65;98957.59;4923860;29;20048;-63
2023/04/11 04:53:58;;;;;;;62.70;34.43;;;;;;;29.88;41.17;98952.34;4922439;29;20047;-62
2023/04/11 04:56:29;;;;;;;59.15;34.03;;;;;;;29.97;43.00;98951.56;4909854;29;20643;-62
2023/04/11 04:58:59;;;;;;;58.65;30.75;;;;;;;29.97;41.97;98960.59;4941538;29;20047;-64
2023/04/11 05:01:31;;;;;;;51.17;25.60;;;;;;;30.39;41.25;98963.84;4941464;29;20043;-62
2023/04/11 05:04:04;;;;;;;40.40;18.15;;;;;;;30.62;39.73;98968.13;4932975;29;20757;-66
2023/04/11 05:06:47;;;;;;;28.80;12.63;;;;;;;30.58;38.74;98972.63;4938142;28;20143;-64
2023/04/11 05:09:17;;;;;;;29.70;10.30;;;;;;;30.98;34.73;98959.69;4944461;29;20058;-63
2023/04/11 05:11:49;;;;;;;27.95;8.90;;;;;;;31.13;36.10;98971.00;4924989;29;20051;-64
2023/04/11 05:14:21;;;;;;;19.77;7.07;;;;;;;31.34;33.15;98970.34;4919446;29;20086;-63
2023/04/11 05:16:51;;;;;;;23.60;7.70;;;;;;;31.57;34.49;98971.81;4924334;29;20346;-63
2023/04/11 05:19:20;;;;;;;23.00;8.50;;;;;;;31.62;33.86;98969.72;4923917;28;20098;-63
2023/04/11 05:21:53;;;;;;;21.08;7.93;;;;;;;31.61;37.48;98975.50;4923994;29;20468;-63
2023/04/11 05:24:22;;;;;;;21.88;8.73;;;;;;;31.49;35.72;98972.59;4923192;29;20543;-66
2023/04/11 05:26:52;;;;;;;19.10;7.53;;;;;;;31.44;37.56;98970.03;4923285;29;20051;-65
2023/04/11 05:29:22;;;;;;;22.75;8.10;;;;;;;31.34;38.01;98967.59;4923080;29;20052;-64
2023/04/11 05:31:51;;;;;;;24.23;9.93;;;;;;;31.81;34.21;98966.66;4916817;29;20452;-61
2023/04/11 05:34:21;;;;;;;21.80;10.30;;;;;;;31.95;36.06;98971.94;4924876;29;20083;-61
2023/04/11 05:36:50;;;;;;;28.38;10.63;;;;;;;31.75;38.12;98973.41;4922755;29;20182;-61
2023/04/11 05:39:20;;;;;;;26.88;13.55;;;;;;;31.96;34.66;98973.53;4943302;29;20062;-62
2023/04/11 05:41:50;;;;;;;26.40;12.40;;;;;;;31.88;36.98;98972.41;4922172;29;20147;-62
2023/04/11 05:44:20;;;;;;;34.90;13.35;;;;;;;32.14;33.59;98974.31;4924503;29;20059;-61
2023/04/11 05:46:49;;;;;;;31.80;14.70;;;;;;;32.56;34.00;98981.56;4937715;29;20055;-61
2023/04/11 05:49:19;;;;;;;30.65;15.10;;;;;;;32.83;35.48;98981.13;4931698;29;20062;-59
2023/04/11 05:51:48;;;;;;;38.03;15.25;;;;;;;33.09;33.17;98969.16;4939863;29;20551;-58
2023/04/11 05:54:32;;;;;;;37.15;17.05;;;;;;;33.15;35.49;98970.63;4943626;28;20098;-65
2023/04/11 05:57:03;;;;;;;42.35;18.77;;;;;;;33.26;34.67;98971.81;4932156;29;20043;-64
2023/04/11 05:59:34;;;;;;;32.80;18.13;;;;;;;32.95;38.10;98969.44;4941402;29;20106;-67
2023/04/11 06:02:04;;;;;;;46.25;20.85;;;;;;;32.75;38.49;98975.69;4944382;28;20043;-64
2023/04/11 06:04:34;;;;;;;46.28;20.67;;;;;;;32.46;36.44;98974.50;4940866;29;20057;-63
2023/04/11 06:07:03;;;;;;;41.20;18.65;;;;;;;32.38;36.69;98974.56;4940904;29;20069;-63
2023/04/11 06:09:32;;;;;;;40.88;18.13;;;;;;;31.94;38.99;98978.53;4942967;29;20853;-63
2023/04/11 06:12:02;;;;;;;32.40;13.98;;;;;;;31.77;36.34;98979.38;4940781;28;20058;-59
2023/04/11 06:14:32;;;;;;;28.35;13.25;;;;;;;31.78;37.40;98977.44;4938320;29;20138;-57
2023/04/11 06:17:01;;;;;;;28.75;12.95;;;;;;;31.57;38.03;98982.78;4945306;28;20047;-56
2023/04/11 06:19:30;;;;;;;22.58;11.98;;;;;;;31.49;39.73;98978.09;4922602;29;20158;-56
2023/04/11 06:22:00;;;;;;;25.13;13.15;;;;;;;31.54;39.08;98976.00;4934226;29;20047;-60
2023/04/11 06:24:38;;;;;;;32.10;14.50;;;;;;;31.54;37.99;98981.47;4922514;29;20047;-59
2023/04/11 06:27:10;;;;;;;22.73;14.70;;;;;;;31.87;37.14;98970.00;4943824;28;20054;-62
2023/04/11 06:29:44;;;;;;;24.77;16.20;;;;;;;32.25;36.08;98979.13;4949229;29;20051;-60
2023/04/11 06:32:13;;;;;;;18.83;9.15;;;;;;;32.63;31.94;98975.59;4941816;29;20088;-60
2023/04/11 06:34:43;;;;;;;21.85;14.93;;;;;;;32.80;31.32;98973.53;4946875;28;20074;-60
2023/04/11 06:37:12;;;;;;;22.15;9.85;;;;;;;32.87;34.63;98979.34;4927968;29;20048;-60
2023/04/11 06:39:42;;;;;;;26.30;10.45;;;;;;;33.01;33.10;98976.34;4940426;29;20066;-61
2023/04/11 06:42:11;;;;;;;26.48;9.70;;;;;;;32.87;31.96;98975.78;4947692;29;20117;-62
2023/04/11 06:44:47;;;;;;;22.08;7.28;;;;;;;33.14;30.03;98969.81;4938751;29;20048;-62
2023/04/11 06:47:17;;;;;;;17.73;6.95;;;;;;;33.31;28.71;98966.13;4945556;29;20472;-62
2023/04/11 06:49:47;;;;;;;20.25;7.00;;;;;;;33.42;29.10;98964.56;4946688;28;20058;-61
2023/04/11 06:52:16;;;;;;;15.48;6.82;;;;;;;33.49;29.11;98964.03;4944433;28;20130;-62
2023/04/11 06:54:47;;;;;;;16.25;7.10;;;;;;;33.48;29.33;98957.72;4947867;29;20058;-61
2023/04/11 06:57:17;;;;;;;22.67;6.95;;;;;;;33.46;33.17;98953.72;4947475;29;20069;-61
2023/04/11 06:59:46;;;;;;;22.63;7.20;;;;;;;33.51;29.24;98946.06;4945266;29;20376;-62
2023/04/11 07:02:16;;;;;;;15.88;7.43;;;;;;;33.69;31.72;98953.03;4935205;28;20062;-60
2023/04/11 07:04:45;;;;;;;25.80;7.47;;;;;;;33.89;33.02;98945.88;4949003;28;20065;-60
2023/04/11 07:07:15;;;;;;;18.60;7.22;;;;;;;33.77;31.96;98932.91;4948306;28;20055;-60
2023/04/11 07:09:45;;;;;;;10.80;5.75;;;;;;;33.83;31.98;98937.03;4948849;28;20384;-61
2023/04/11 07:12:17;;;;;;;17.00;6.53;;;;;;;33.84;29.97;98933.16;4935722;28;20511;-62
2023/04/11 07:14:47;;;;;;;13.43;5.93;;;;;;;33.83;31.08;98928.00;4929687;29;20071;-62
2023/04/11 07:17:16;;;;;;;16.58;5.45;;;;;;;33.69;29.63;98922.81;4927363;29;20051;-62
2023/04/11 07:19:46;;;;;;;14.23;5.05;;;;;;;33.69;29.31;98911.81;4941840;29;20906;-61
2023/04/11 07:22:15;;;;;;;17.20;5.70;;;;;;;33.46;31.06;98913.31;4939925;28;20074;-62
2023/04/11 07:24:45;;;;;;;17.73;5.15;;;;;;;33.46;30.94;98902.31;4935937;29;20055;-61
2023/04/11 07:27:16;;;;;;;10.93;5.07;;;;;;;33.35;31.05;98888.22;4938351;29;20565;-62
2023/04/11 07:29:45;;;;;;;14.13;5.63;;;;;;;33.42;33.42;98899.44;4945840;29;20126;-62
2023/04/11 07:32:14;;;;;;;12.32;5.03;;;;;;;33.47;33.08;98889.38;4940023;29;20049;-62
2023/04/11 07:34:44;;;;;;;8.25;5.25;;;;;;;33.25;31.41;98888.63;4945753;29;20054;-61
2023/04/11 07:37:15;;;;;;;15.25;5.53;;;;;;;32.84;33.49;98888.66;4942717;28;20134;-61
2023/04/11 07:39:44;;;;;;;15.15;5.28;;;;;;;32.80;34.07;98883.00;4941937;29;20047;-62
2023/04/11 07:42:13;;;;;;;12.27;5.00;;;;;;;32.67;32.55;98881.31;4945999;29;20134;-61
2023/04/11 07:44:42;;;;;;;12.55;4.80;;;;;;;32.83;30.65;98874.13;4942235;29;20047;-62
2023/04/11 07:47:11;;;;;;;18.23;4.82;;;;;;;33.01;30.63;98874.78;4945676;29;20681;-61
2023/04/11 07:49:41;;;;;;;17.23;4.90;;;;;;;33.20;31.23;98864.13;4947884;29;20546;-61
2023/04/11 07:52:10;;;;;;;10.02;4.35;;;;;;;33.10;31.46;98870.03;4945181;29;20142;-62
2023/04/11 07:54:41;;;;;;;12.45;5.03;;;;;;;33.20;29.99;98869.63;4949094;28;20050;-63
2023/04/11 07:57:11;;;;;;;13.18;5.78;;;;;;;33.29;31.40;98864.03;4947327;29;20051;-61
2023/04/11 07:59:41;;;;;;;17.92;5.60;;;;;;;33.47;29.40;98856.44;4947393;29;20051;-62
2023/04/11 08:02:10;;;;;;;15.48;5.68;;;;;;;33.35;31.41;98859.97;4947373;28;20509;-62
2023/04/11 08:04:40;;;;;;;12.82;5.20;;;;;;;33.34;31.54;98859.16;4950435;28;20051;-62
2023/04/11 08:07:10;;;;;;;13.50;5.68;;;;;;;33.34;29.73;98852.84;4947689;29;20058;-61
2023/04/11 08:09:41;;;;;;;19.13;4.82;;;;;;;32.99;32.13;98852.34;4938826;29;20695;-63
2023/04/11 08:12:10;;;;;;;10.15;4.47;;;;;;;32.86;29.96;98839.72;4944826;29;20142;-61
2023/04/11 08:14:40;;;;;;;16.40;5.82;;;;;;;32.80;32.88;98841.84;4930651;29;20048;-61
2023/04/11 08:17:13;;;;;;;15.52;5.40;;;;;;;32.70;32.91;98839.53;4946927;29;20308;-63
2023/04/11 08:19:56;;;;;;;13.77;4.57;;;;;;;32.57;34.03;98828.78;4946668;28;20051;-60
2023/04/11 08:22:25;;;;;;;13.40;4.65;;;;;;;32.43;33.93;98826.28;4938566;28;20740;-60
2023/04/11 08:24:55;;;;;;;18.83;5.60;;;;;;;32.37;32.67;98820.19;4940709;29;20039;-59
2023/04/11 08:27:24;;;;;;;13.85;5.20;;;;;;;32.44;30.40;98814.19;4946271;29;20122;-60
2023/04/11 08:29:54;;;;;;;13.63;4.82;;;;;;;32.19;32.31;98804.97;4946646;29;20047;-59
2023/04/11 08:32:23;;;;;;;16.10;5.32;;;;;;;32.34;32.94;98803.59;4937214;29;20129;-59
2023/04/11 08:34:53;;;;;;;22.45;6.50;;;;;;;32.42;32.34;98800.81;4946853;29;20055;-60
2023/04/11 08:37:22;;;;;;;15.60;6.80;;;;;;;32.36;32.43;98798.56;4945687;29;20055;-61
2023/04/11 08:39:52;;;;;;;18.45;6.60;;;;;;;32.41;31.72;98792.91;4944038;29;20110;-61
2023/04/11 08:42:28;;;;;;;22.85;8.57;;;;;;;32.49;29.95;98786.53;4941375;29;20771;-61
2023/04/11 08:45:00;;;;;;;23.13;7.00;;;;;;;32.64;29.69;98780.50;4944212;29;20081;-61
2023/04/11 08:47:30;;;;;;;15.57;6.07;;;;;;;32.77;32.04;98782.16;4944479;29;20062;-62
2023/04/11 08:50:00;;;;;;;13.65;5.80;;;;;;;32.89;28.64;98776.72;4941657;28;20043;-62
2023/04/11 08:52:30;;;;;;;18.48;7.45;;;;;;;32.97;27.53;98766.81;4943971;29;20062;-63
2023/04/11 08:55:00;;;;;;;18.55;6.40;;;;;;;32.85;32.22;98759.31;4946856;29;20051;-63
2023/04/11 08:57:33;;;;;;;20.13;6.50;;;;;;;32.64;29.51;98763.22;4945590;28;20047;-62
2023/04/11 09:00:13;;;;;;;10.00;5.88;;;;;;;32.71;30.61;98753.31;4941515;29;20056;-64
2023/04/11 09:03:02;;;;;;;16.75;6.05;;;;;;;32.77;29.92;98754.72;4944498;29;20067;-63
2023/04/11 09:05:37;;;;;;;11.68;5.93;;;;;;;32.50;30.99;98747.81;4945399;29;20822;-63
2023/04/11 09:08:12;;;;;;;15.45;6.10;;;;;;;32.43;30.44;98749.50;4943193;29;20593;-61
2023/04/11 09:10:44;;;;;;;13.93;6.30;;;;;;;32.46;30.82;98752.38;4919575;29;20569;-63
2023/04/11 09:13:27;;;;;;;21.08;6.70;;;;;;;32.54;28.46;98745.22;4926713;29;20772;-62
2023/04/11 09:16:11;;;;;;;15.32;7.10;;;;;;;32.68;28.28;98743.03;4927234;29;20535;-64
2023/04/11 09:18:45;;;;;;;13.25;5.85;;;;;;;32.48;31.48;98744.63;4926924;29;20143;-62
2023/04/11 09:21:16;;;;;;;16.83;5.18;;;;;;;32.14;29.57;98733.09;4936152;29;20051;-63
2023/04/11 09:23:45;;;;;;;14.52;6.30;;;;;;;31.92;31.93;98731.44;4934480;29;20051;-63
2023/04/11 09:26:27;;;;;;;11.02;5.93;;;;;;;31.89;33.34;98729.38;4918451;29;20056;-63
2023/04/11 09:28:56;;;;;;;15.82;6.15;;;;;;;32.12;31.14;98727.97;4941445;29;20058;-63
2023/04/11 09:31:44;;;;;;;17.40;6.13;;;;;;;32.01;31.27;98729.47;4931566;29;20078;-62
2023/04/11 09:34:26;;;;;;;16.55;6.80;;;;;;;31.89;30.34;98715.69;4906882;29;20544;-63
2023/04/11 09:36:56;;;;;;;14.80;7.05;;;;;;;31.72;31.52;98704.81;4908095;29;20083;-64
2023/04/11 09:39:28;;;;;;;15.30;5.80;;;;;;;31.52;29.73;98707.16;4908056;29;20406;-63
2023/04/11 09:41:58;;;;;;;14.77;6.33;;;;;;;31.53;32.25;98697.00;4932220;29;20931;-64
2023/04/11 09:44:37;;;;;;;16.70;6.93;;;;;;;31.61;31.06;98694.25;4912030;29;20528;-63
2023/04/11 09:47:08;;;;;;;20.35;6.75;;;;;;;31.53;33.72;98697.00;4922962;29;20126;-62
2023/04/11 09:49:39;;;;;;;17.55;6.03;;;;;;;31.61;31.35;98699.72;4927323;29;20456;-63
2023/04/11 09:52:08;;;;;;;14.38;6.45;;;;;;;31.47;33.63;98685.44;4931389;29;20091;-62
2023/04/11 09:54:37;;;;;;;15.95;6.63;;;;;;;31.28;33.44;98687.78;4940387;29;20086;-64
2023/04/11 09:57:08;;;;;;;14.60;5.82;;;;;;;31.14;33.56;98689.94;4934661;29;20098;-63
2023/04/11 09:59:39;;;;;;;10.75;5.43;;;;;;;31.45;31.99;98679.50;4927325;29;20044;-63
2023/04/11 10:02:09;;;;;;;15.93;5.07;;;;;;;31.22;32.70;98675.41;4943470;29;20049;-62
2023/04/11 10:04:39;;;;;;;12.43;5.53;;;;;;;31.10;33.85;98669.81;4933406;29;20066;-62
2023/04/11 10:07:15;;;;;;;15.52;5.80;;;;;;;31.00;34.53;98661.94;4942168;29;20051;-65
2023/04/11 10:09:46;;;;;;;18.85;5.68;;;;;;;30.99;34.87;98669.34;4939221;28;20047;-63
2023/04/11 10:12:36;;;;;;;20.60;6.78;;;;;;;31.27;32.15;98655.25;4945729;29;20047;-63
2023/04/11 10:15:09;;;;;;;21.70;6.15;;;;;;;31.44;31.33;98663.38;4925890;29;20485;-63
2023/04/11 10:17:39;;;;;;;27.35;5.55;;;;;;;31.45;29.65;98659.53;4926851;29;20047;-63
2023/04/11 10:20:44;;;;;;;13.02;4.90;;;;;;;31.49;32.55;98652.25;4926628;29;20131;-64
2023/04/11 10:23:15;;;;;;;11.90;4.60;;;;;;;31.44;30.47;98649.69;4934385;28;20054;-63
2023/04/11 10:25:50;;;;;;;16.05;5.05;;;;;;;31.27;31.59;98650.59;4947534;28;20166;-62
2023/04/11 10:28:30;;;;;;;18.13;4.68;;;;;;;31.05;32.61;98639.91;4930174;28;20055;-63
2023/04/11 10:31:12;;;;;;;15.10;4.60;;;;;;;30.97;32.83;98638.78;4931933;29;20597;-63
2023/04/11 10:34:13;;;;;;;12.18;4.50;;;;;;;30.99;32.00;98639.25;4945264;28;20054;-62
2023/04/11 10:37:06;;;;;;;13.23;5.00;;;;;;;30.96;31.42;98636.38;4941426;29;20039;-62
2023/04/11 10:40:13;;;;;;;;;;;;;;;31.00;31.98;98626.38;4946167;29;20059;-61
2023/04/11 10:42:45;;;;;;;16.23;4.28;;;;;;;30.99;31.12;98635.69;4937765;28;20464;-64
2023/04/11 10:45:23;;;;;;;14.80;4.60;;;;;;;30.90;32.77;98629.47;4944978;29;20059;-63
2023/04/11 10:47:55;;;;;;;14.48;5.30;;;;;;;30.67;31.65;98626.19;4945619;29;20061;-63
2023/04/11 10:50:25;;;;;;;23.43;5.17;;;;;;;30.59;32.01;98618.78;4945639;28;20058;-61
2023/04/11 10:53:00;;;;;;;16.83;5.20;;;;;;;30.52;32.25;98610.28;4944809;28;20150;-62
2023/04/11 10:55:41;;;;;;;13.02;4.93;;;;;;;30.61;33.88;98622.81;4945531;29;20043;-63
2023/04/11 10:58:15;;;;;;;13.18;5.13;;;;;;;30.57;30.20;98618.31;4943441;28;20143;-62
2023/04/11 11:00:51;;;;;;;12.48;4.22;;;;;;;30.83;29.83;98613.56;4929416;29;20043;-62
2023/04/11 11:03:23;;;;;;;30.35;6.15;;;;;;;31.04;32.61;98614.47;4944325;29;20842;-63
2023/04/11 11:06:01;;;;;;;17.55;5.18;;;;;;;31.22;30.98;98615.19;4945795;29;20110;-64
2023/04/11 11:08:45;;;;;;;12.40;4.70;;;;;;;31.15;32.12;98614.91;4945188;29;20464;-63
2023/04/11 11:11:18;;;;;;;;;;;;;;;31.12;30.67;98610.09;4943868;28;20043;-64
2023/04/11 11:13:52;;;;;;;14.13;4.87;;;;;;;31.10;30.20;98602.22;4946851;28;19926;-66
2023/04/11 11:16:24;;;;;;;11.95;5.03;;;;;;;31.19;30.24;98599.44;4948471;29;20281;-63
2023/04/11 11:18:57;;;;;;;18.73;5.43;;;;;;;31.35;28.88;98602.41;4943260;29;20512;-67
2023/04/11 11:21:28;;;;;;;12.18;5.32;;;;;;;31.34;28.33;98601.59;4938169;29;20047;-61
2023/04/11 11:24:02;;;;;;;8.68;4.88;;;;;;;31.44;29.76;98601.22;4931827;29;20051;-62
2023/04/11 11:26:43;;;;;;;16.63;5.32;;;;;;;31.59;28.01;98602.63;4948442;29;20066;-63
2023/04/11 11:29:13;;;;;;;17.13;4.43;;;;;;;31.68;28.72;98597.06;4948517;28;20057;-64
2023/04/11 11:31:45;;;;;;;15.40;5.38;;;;;;;31.73;29.26;98584.00;4948526;28;20077;-64
2023/04/11 11:34:32;;;;;;;19.98;5.47;;;;;;;31.80;28.71;98584.25;4947026;28;20043;-66
2023/04/11 11:37:03;;;;;;;13.45;5.00;;;;;;;31.87;29.27;98580.94;4942218;29;20544;-63
2023/04/11 11:39:34;;;;;;;16.45;8.40;;;;;;;32.02;28.10;98572.94;4932004;29;20078;-63
2023/04/11 11:42:04;;;;;;;36.67;21.38;;;;;;;32.09;28.56;98578.69;4947955;28;20083;-63